createdAt,value
2019-02-05T00:01:41.762Z,1.87
2019-02-05T00:04:08.480Z,2.50
2019-02-05T00:06:35.219Z,1.70
2019-02-05T00:09:03.946Z,2.75
2019-02-05T00:11:30.733Z,2.12
2019-02-05T00:13:57.428Z,2.05
2019-02-05T00:16:24.295Z,2.72
2019-02-05T00:18:51.665Z,1.55
2019-02-05T00:21:18.469Z,1.98
2019-02-05T00:23:45.202Z,2.58
2019-02-05T00:26:11.928Z,2.45
2019-02-05T00:28:38.639Z,1.55
2019-02-05T00:31:05.538Z,1.50
2019-02-05T00:33:32.239Z,5.42
2019-02-05T00:35:58.936Z,2.15
2019-02-05T00:38:26.024Z,3.10
2019-02-05T00:40:52.921Z,1.45
2019-02-05T00:43:19.678Z,2.95
2019-02-05T00:45:46.379Z,1.40
2019-02-05T00:48:13.070Z,2.25
2019-02-05T00:50:39.773Z,2.10
2019-02-05T00:55:45.309Z,1.60
2019-02-05T00:58:11.993Z,1.27
2019-02-05T01:00:38.714Z,1.35
2019-02-05T01:03:05.436Z,1.22
2019-02-05T01:05:32.121Z,1.82
2019-02-05T01:07:58.834Z,1.12
2019-02-05T01:10:26.156Z,2.47
2019-02-05T01:12:53.345Z,1.60
2019-02-05T01:15:21.931Z,1.10
2019-02-05T01:17:48.731Z,1.37
2019-02-05T01:20:16.443Z,1.82
2019-02-05T01:22:43.239Z,1.05
2019-02-05T01:25:11.982Z,1.20
2019-02-05T01:27:38.670Z,1.25
2019-02-05T01:30:07.689Z,2.53
2019-02-05T01:32:34.492Z,1.10
2019-02-05T01:35:01.178Z,1.55
2019-02-05T01:37:27.856Z,2.77
2019-02-05T01:39:55.770Z,1.20
2019-02-05T01:42:22.535Z,1.27
2019-02-05T01:44:49.229Z,0.90
2019-02-05T01:47:16.304Z,1.65
2019-02-05T01:49:43.227Z,0.88
2019-02-05T01:52:09.912Z,2.35
2019-02-05T01:54:36.624Z,1.05
2019-02-05T01:57:03.217Z,1.22
2019-02-05T01:59:29.909Z,1.22
2019-02-05T02:01:56.625Z,0.78
2019-02-05T02:04:23.319Z,1.67
2019-02-05T02:06:50.102Z,1.52
2019-02-05T02:09:16.708Z,0.65
2019-02-05T02:11:43.445Z,1.00
2019-02-05T02:14:10.095Z,0.90
2019-02-05T02:16:37.897Z,1.42
2019-02-05T02:19:04.658Z,0.98
2019-02-05T02:21:31.350Z,0.82
2019-02-05T02:23:58.052Z,0.53
2019-02-05T02:26:24.774Z,1.07
2019-02-05T02:28:51.469Z,1.32
2019-02-05T02:31:19.265Z,0.72
2019-02-05T02:33:45.957Z,0.80
2019-02-05T02:36:12.653Z,1.32
2019-02-05T02:38:39.371Z,1.98
2019-02-05T02:41:06.053Z,1.02
2019-02-05T02:43:33.267Z,0.67
2019-02-05T02:45:59.987Z,0.60
2019-02-05T02:48:26.661Z,1.20
2019-02-05T02:50:53.426Z,1.67
2019-02-05T02:53:20.160Z,0.60
2019-02-05T02:55:47.061Z,0.70
2019-02-05T02:58:13.774Z,0.70
2019-02-05T03:00:40.457Z,0.60
2019-02-05T03:03:08.785Z,1.33
2019-02-05T03:05:35.481Z,0.75
2019-02-05T03:08:02.221Z,0.70
2019-02-05T03:10:29.385Z,0.82
2019-02-05T03:12:56.200Z,1.03
2019-02-05T03:15:22.901Z,1.02
2019-02-05T03:17:49.575Z,0.55
2019-02-05T03:20:16.297Z,0.68
2019-02-05T03:22:45.326Z,0.88
2019-02-05T03:25:15.733Z,1.45
2019-02-05T03:27:42.355Z,0.60
2019-02-05T03:30:10.972Z,0.65
2019-02-05T03:32:37.647Z,1.40
2019-02-05T03:35:05.234Z,3.35
2019-02-05T03:37:31.937Z,1.50
2019-02-05T03:39:58.621Z,0.75
2019-02-05T03:42:25.304Z,1.00
2019-02-05T03:44:52.323Z,2.02
2019-02-05T03:47:19.006Z,0.53
2019-02-05T03:49:45.674Z,0.80
2019-02-05T03:52:12.493Z,0.40
2019-02-05T03:54:44.195Z,0.53
2019-02-05T03:57:30.910Z,0.60
2019-02-05T03:59:58.329Z,0.70
2019-02-05T04:02:26.936Z,0.60
2019-02-05T04:04:55.529Z,0.50
2019-02-05T04:07:24.117Z,1.40
2019-02-05T04:09:55.812Z,0.70
2019-02-05T04:12:24.417Z,0.60
2019-02-05T04:14:56.357Z,1.00
2019-02-05T04:17:31.137Z,0.90
2019-02-05T04:19:59.717Z,0.50
2019-02-05T04:22:31.334Z,0.50
2019-02-05T04:25:17.021Z,0.60
2019-02-05T04:27:48.638Z,0.47
2019-02-05T04:30:17.270Z,0.60
2019-02-05T04:32:45.959Z,0.65
2019-02-05T04:35:23.709Z,0.42
2019-02-05T04:38:04.990Z,0.50
2019-02-05T04:40:33.590Z,0.60
2019-02-05T04:43:11.025Z,0.50
2019-02-05T04:45:57.475Z,0.75
2019-02-05T04:48:35.137Z,0.60
2019-02-05T04:51:09.682Z,0.57
2019-02-05T04:53:50.334Z,0.60
2019-02-05T04:56:25.102Z,1.30
2019-02-05T04:58:53.704Z,0.40
2019-02-05T05:01:37.321Z,0.60
2019-02-05T05:04:15.045Z,0.60
2019-02-05T05:06:55.953Z,0.78
2019-02-05T05:09:24.609Z,0.85
2019-02-05T05:11:51.293Z,0.60
2019-02-05T05:14:17.977Z,0.72
2019-02-05T05:16:44.766Z,1.50
2019-02-05T05:19:11.449Z,0.95
2019-02-05T05:21:38.446Z,0.60
2019-02-05T05:24:06.070Z,0.60
2019-02-05T05:26:32.814Z,0.95
2019-02-05T05:28:59.493Z,0.68
2019-02-05T05:31:26.205Z,0.72
2019-02-05T05:33:52.899Z,0.70
2019-02-05T05:36:19.585Z,0.90
2019-02-05T05:38:46.305Z,0.60
2019-02-05T05:41:13.285Z,1.00
2019-02-05T05:43:39.982Z,0.65
2019-02-05T05:46:06.685Z,1.07
2019-02-05T05:48:33.381Z,0.98
2019-02-05T05:51:00.077Z,1.37
2019-02-05T05:53:26.782Z,0.80
2019-02-05T05:55:53.490Z,0.95
2019-02-05T05:58:23.218Z,0.62
2019-02-05T06:00:48.738Z,0.65
2019-02-05T06:03:15.661Z,0.50
2019-02-05T06:05:42.347Z,0.80
2019-02-05T06:08:09.107Z,1.60
2019-02-05T06:10:35.773Z,0.68
2019-02-05T06:13:02.510Z,1.22
2019-02-05T06:15:29.248Z,0.80
2019-02-05T06:17:55.963Z,0.75
2019-02-05T06:20:22.677Z,0.90
2019-02-05T06:22:49.922Z,0.93
2019-02-05T06:25:16.792Z,0.62
2019-02-05T06:27:43.752Z,0.83
2019-02-05T06:30:14.596Z,0.93
2019-02-05T06:32:41.317Z,0.68
2019-02-05T06:35:08.525Z,0.98
2019-02-05T06:37:35.342Z,0.70
2019-02-05T06:40:02.961Z,1.20
2019-02-05T06:42:29.959Z,2.12
2019-02-05T06:44:56.673Z,2.40
2019-02-05T06:47:23.286Z,3.80
2019-02-05T06:49:49.989Z,10.10
2019-02-05T06:52:16.697Z,4.92
2019-02-05T06:54:43.409Z,1.12
2019-02-05T06:57:10.118Z,0.93
2019-02-05T06:59:36.826Z,0.95
2019-02-05T07:02:03.890Z,1.40
2019-02-05T07:04:30.599Z,0.85
2019-02-05T07:06:57.315Z,1.60
2019-02-05T07:09:24.016Z,4.08
2019-02-05T07:11:50.702Z,2.35
2019-02-05T07:14:17.441Z,0.75
2019-02-05T07:16:44.146Z,1.40
2019-02-05T07:19:10.866Z,1.70
2019-02-05T07:21:37.586Z,1.12
2019-02-05T07:24:04.393Z,1.52
2019-02-05T07:26:31.135Z,1.10
2019-02-05T07:29:01.776Z,1.45
2019-02-05T07:31:26.379Z,1.20
2019-02-05T07:33:53.620Z,0.72
2019-02-05T07:36:20.349Z,1.30
2019-02-05T07:38:47.076Z,2.65
2019-02-05T07:41:13.781Z,1.55
2019-02-05T07:43:40.511Z,1.45
2019-02-05T07:46:07.495Z,1.25
2019-02-05T07:48:34.229Z,1.05
2019-02-05T07:51:00.910Z,2.77
2019-02-05T07:53:27.635Z,1.40
2019-02-05T07:55:54.358Z,1.70
2019-02-05T07:58:21.079Z,1.35
2019-02-05T08:00:47.821Z,1.90
2019-02-05T08:03:14.529Z,1.70
2019-02-05T08:05:41.388Z,0.80
2019-02-05T08:08:08.363Z,3.42
2019-02-05T08:10:35.061Z,1.17
2019-02-05T08:13:01.801Z,1.50
2019-02-05T08:15:30.590Z,1.80
2019-02-05T08:17:57.295Z,3.05
2019-02-05T08:20:24.007Z,1.40
2019-02-05T08:22:50.718Z,2.25
2019-02-05T08:25:17.438Z,1.30
2019-02-05T08:27:44.194Z,3.00
2019-02-05T08:30:12.505Z,1.77
2019-02-05T08:32:40.605Z,1.45
2019-02-05T08:35:08.746Z,1.40
2019-02-05T08:37:35.530Z,3.92
2019-02-05T08:40:03.643Z,1.30
2019-02-05T08:44:56.863Z,1.77
2019-02-05T08:47:23.582Z,1.52
2019-02-05T08:49:50.317Z,1.30
2019-02-05T08:52:17.425Z,3.80
2019-02-05T08:54:44.197Z,1.27
2019-02-05T08:57:10.933Z,4.55
2019-02-05T08:59:37.646Z,1.27
2019-02-05T09:02:04.346Z,3.72
2019-02-05T09:04:31.074Z,2.50
2019-02-05T09:06:57.804Z,3.58
2019-02-05T09:09:24.601Z,2.12
2019-02-05T09:11:51.326Z,2.22
2019-02-05T09:14:18.565Z,3.03
2019-02-05T09:16:45.289Z,1.95
2019-02-05T09:19:12.037Z,2.40
2019-02-05T09:21:38.741Z,1.85
2019-02-05T09:24:05.485Z,2.67
2019-02-05T09:26:32.193Z,1.90
2019-02-05T09:28:58.941Z,2.20
2019-02-05T09:31:25.679Z,1.70
2019-02-05T09:33:52.417Z,2.05
2019-02-05T09:36:19.419Z,2.35
2019-02-05T09:38:46.125Z,1.80
2019-02-05T09:41:12.896Z,1.57
2019-02-05T09:43:40.613Z,2.60
2019-02-05T09:46:07.343Z,2.75
2019-02-05T09:48:34.061Z,2.30
2019-02-05T09:51:00.781Z,1.85
2019-02-05T09:53:27.523Z,2.67
2019-02-05T09:55:54.278Z,3.85
2019-02-05T09:58:20.975Z,3.35
2019-02-05T10:00:48.121Z,3.08
2019-02-05T10:03:14.869Z,3.20
2019-02-05T10:05:41.598Z,2.45
2019-02-05T10:08:08.355Z,4.67
2019-02-05T10:10:35.033Z,1.85
2019-02-05T10:13:02.029Z,2.37
2019-02-05T10:15:32.419Z,2.25
2019-02-05T10:17:59.457Z,4.47
2019-02-05T10:20:26.164Z,3.55
2019-02-05T10:22:53.452Z,3.85
2019-02-05T10:25:20.167Z,2.42
2019-02-05T10:27:46.859Z,2.47
2019-02-05T10:30:18.558Z,2.05
2019-02-05T10:32:45.594Z,2.25
2019-02-05T10:35:12.302Z,1.72
2019-02-05T10:37:39.184Z,2.62
2019-02-05T10:40:07.890Z,2.62
2019-02-05T10:42:34.574Z,2.08
2019-02-05T10:45:01.379Z,2.22
2019-02-05T10:47:28.104Z,1.67
2019-02-05T10:49:54.806Z,3.25
2019-02-05T10:52:22.650Z,2.30
2019-02-05T10:54:49.367Z,2.45
2019-02-05T10:57:16.410Z,2.52
2019-02-05T10:59:43.111Z,3.50
2019-02-05T11:02:09.897Z,2.65
2019-02-05T11:04:36.612Z,1.57
2019-02-05T11:07:03.304Z,2.52
2019-02-05T11:09:30.081Z,3.15
2019-02-05T11:11:56.793Z,2.00
2019-02-05T11:14:23.508Z,2.52
2019-02-05T11:16:50.269Z,3.08
2019-02-05T11:19:17.406Z,2.52
2019-02-05T11:21:44.117Z,3.70
2019-02-05T11:24:10.838Z,4.42
2019-02-05T11:26:37.537Z,2.37
2019-02-05T11:29:04.237Z,2.42
2019-02-05T11:31:31.044Z,3.77
2019-02-05T11:33:57.751Z,2.58
2019-02-05T11:36:24.495Z,3.10
2019-02-05T11:38:51.205Z,2.95
2019-02-05T11:41:18.214Z,2.33
2019-02-05T11:43:44.913Z,2.90
2019-02-05T11:46:11.710Z,3.05
2019-02-05T11:48:38.485Z,1.92
2019-02-05T11:51:05.193Z,3.65
2019-02-05T11:53:31.914Z,2.80
2019-02-05T11:55:58.626Z,3.83
2019-02-05T11:58:25.331Z,3.02
2019-02-05T12:00:53.963Z,1.92
2019-02-05T12:03:20.645Z,2.83
2019-02-05T12:05:48.372Z,3.50
2019-02-05T12:08:15.191Z,2.22
2019-02-05T12:10:43.582Z,3.27
2019-02-05T12:13:10.278Z,1.42
2019-02-05T12:15:36.990Z,2.98
2019-02-05T12:18:03.694Z,1.90
2019-02-05T12:20:30.482Z,2.58
2019-02-05T12:22:57.626Z,1.60
2019-02-05T12:25:24.329Z,1.52
2019-02-05T12:27:51.007Z,3.77
2019-02-05T12:30:24.412Z,3.30
2019-02-05T12:32:51.097Z,1.82
2019-02-05T12:35:17.821Z,1.90
2019-02-05T12:37:44.532Z,1.80
2019-02-05T12:40:15.625Z,2.95
2019-02-05T12:42:42.729Z,2.15
2019-02-05T12:45:10.865Z,3.15
2019-02-05T12:50:05.908Z,2.70
2019-02-05T12:52:32.732Z,1.50
2019-02-05T12:55:12.680Z,1.62
2019-02-05T12:57:27.945Z,1.65
2019-02-05T12:59:54.970Z,4.37
2019-02-05T13:02:21.685Z,1.95
2019-02-05T13:04:48.374Z,3.98
2019-02-05T13:07:15.099Z,2.80
2019-02-05T13:09:41.796Z,2.92
2019-02-05T13:12:08.487Z,2.42
2019-02-05T13:14:35.224Z,8.43
2019-02-05T13:17:01.918Z,5.50
2019-02-05T13:19:29.123Z,5.73
2019-02-05T13:21:55.853Z,9.18
2019-02-05T13:24:22.619Z,12.15
2019-02-05T13:26:49.337Z,6.37
2019-02-05T13:29:16.138Z,7.42
2019-02-05T13:31:42.860Z,6.87
2019-02-05T13:34:09.556Z,4.12
2019-02-05T13:36:36.366Z,11.30
2019-02-05T13:39:04.986Z,7.25
2019-02-05T13:41:35.087Z,4.62
2019-02-05T13:44:01.820Z,5.37
2019-02-05T13:46:28.512Z,6.12
2019-02-05T13:48:55.273Z,6.53
2019-02-05T13:51:22.005Z,4.25
2019-02-05T13:53:48.591Z,8.38
2019-02-05T13:56:15.400Z,7.33
2019-02-05T13:58:42.275Z,8.80
2019-02-05T14:01:19.333Z,7.58
2019-02-05T14:03:38.639Z,6.58
2019-02-05T14:06:05.392Z,4.17
2019-02-05T14:08:32.101Z,4.62
2019-02-05T14:10:58.863Z,6.12
2019-02-05T14:13:25.902Z,4.90
2019-02-05T14:15:52.596Z,7.45
2019-02-05T14:18:22.159Z,4.75
2019-02-05T14:20:47.723Z,6.15
2019-02-05T14:23:14.465Z,5.25
2019-02-05T14:25:41.194Z,7.25
2019-02-05T14:28:08.001Z,4.70
2019-02-05T14:30:36.903Z,6.55
2019-02-05T14:33:04.009Z,5.28
2019-02-05T14:35:30.808Z,5.42
2019-02-05T14:37:57.529Z,3.58
2019-02-05T14:40:24.933Z,8.78
2019-02-05T14:42:52.291Z,8.60
2019-02-05T14:45:18.967Z,5.72
2019-02-05T14:47:45.574Z,5.62
2019-02-05T14:50:24.286Z,9.13
2019-02-05T14:52:51.069Z,10.50
2019-02-05T14:55:17.773Z,8.70
2019-02-05T14:57:44.496Z,8.55
2019-02-05T15:00:14.082Z,11.80
2019-02-05T15:02:40.842Z,7.15
2019-02-05T15:05:09.141Z,11.55
2019-02-05T15:07:35.861Z,11.57
2019-02-05T15:10:04.629Z,9.45
2019-02-05T15:12:31.390Z,12.78
2019-02-05T15:14:58.117Z,10.45
2019-02-05T15:17:24.829Z,13.60
2019-02-05T15:19:53.677Z,8.83
2019-02-05T15:22:20.697Z,9.60
2019-02-05T15:24:47.470Z,9.05
2019-02-05T15:27:14.314Z,9.33
2019-02-05T15:29:43.852Z,8.55
2019-02-05T15:32:12.701Z,5.70
2019-02-05T15:34:39.405Z,5.87
2019-02-05T15:37:06.119Z,7.45
2019-02-05T15:39:32.881Z,6.12
2019-02-05T15:42:00.858Z,4.15
2019-02-05T15:44:27.575Z,3.58
2019-02-05T15:46:54.269Z,5.87
2019-02-05T15:49:22.040Z,3.20
2019-02-05T15:51:49.857Z,19.80
2019-02-05T16:05:11.804Z,3.77
2019-02-05T16:07:38.735Z,4.55
2019-02-05T16:10:22.910Z,7.35
2019-02-05T16:12:49.176Z,3.62
2019-02-05T16:15:15.812Z,3.77
2019-02-05T16:17:42.159Z,4.72
2019-02-05T16:20:11.810Z,5.97
2019-02-05T16:22:38.183Z,6.25
2019-02-05T16:25:08.080Z,4.03
2019-02-05T16:27:35.585Z,4.62
2019-02-05T16:30:01.964Z,4.12
2019-02-05T16:32:30.638Z,4.15
2019-02-05T16:34:57.048Z,4.55
2019-02-05T16:37:23.362Z,3.60
2019-02-05T16:39:49.898Z,3.45
2019-02-05T16:42:16.245Z,2.80
2019-02-05T16:44:46.466Z,6.53
2019-02-05T16:47:12.818Z,7.35
2019-02-05T16:49:39.249Z,2.85
2019-02-05T16:52:05.484Z,5.20
2019-02-05T16:54:31.854Z,3.33
2019-02-05T16:56:58.187Z,5.72
2019-02-05T16:59:24.509Z,6.67
2019-02-05T17:01:50.758Z,5.42
2019-02-05T17:04:17.018Z,7.62
2019-02-05T17:06:43.379Z,5.53
2019-02-05T17:09:12.637Z,5.42
2019-02-05T17:11:39.145Z,5.72
2019-02-05T17:14:05.482Z,8.65
2019-02-05T17:16:31.930Z,6.17
2019-02-05T17:18:58.249Z,6.62
2019-02-05T17:21:26.003Z,6.15
2019-02-05T17:23:52.360Z,7.28
2019-02-05T17:26:18.694Z,22.00
2019-02-05T17:28:45.022Z,16.50
2019-02-05T17:31:11.381Z,14.40
2019-02-05T17:33:37.714Z,13.30
2019-02-05T17:36:04.158Z,14.13
2019-02-05T17:38:30.497Z,15.95
2019-02-05T17:40:57.046Z,77.62
2019-02-05T17:43:23.450Z,50.33
2019-02-05T17:45:49.861Z,39.58
2019-02-05T17:48:17.575Z,37.73
2019-02-05T18:28:15.567Z,9.98
2019-02-05T18:43:27.317Z,45.20
2019-02-05T18:45:53.693Z,38.13
2019-02-05T18:48:19.932Z,205.37
2019-02-05T18:50:46.281Z,531.02
2019-02-05T18:53:13.609Z,342.50
2019-02-05T18:55:42.076Z,100.33
2019-02-05T18:58:09.743Z,53.92
2019-02-05T19:00:43.437Z,41.53
2019-02-05T19:03:15.771Z,15.38
2019-02-05T19:05:37.896Z,27.85
2019-02-05T19:08:04.324Z,17.97
2019-02-05T19:10:30.681Z,25.00
2019-02-05T19:12:56.986Z,33.00
2019-02-05T19:15:25.221Z,39.13
2019-02-05T19:20:23.661Z,24.77
2019-02-05T19:22:49.994Z,30.53
2019-02-05T19:25:20.849Z,53.97
2019-02-05T19:27:48.225Z,30.80
2019-02-05T19:30:19.603Z,28.83
2019-02-05T19:32:45.887Z,30.93
2019-02-05T19:35:12.292Z,30.40
2019-02-05T19:37:38.747Z,33.83
2019-02-05T19:40:08.491Z,30.93
2019-02-05T19:42:34.742Z,20.50
2019-02-05T19:45:02.991Z,19.63
2019-02-05T19:47:31.777Z,16.83
2019-02-05T19:49:58.198Z,22.93
2019-02-05T19:52:27.715Z,12.77
2019-02-05T19:54:53.893Z,10.67
2019-02-05T19:57:20.446Z,8.13
2019-02-05T19:59:47.078Z,7.90
2019-02-05T20:02:13.427Z,8.10
2019-02-05T20:04:39.748Z,7.57
2019-02-05T20:07:06.151Z,4.40
2019-02-05T20:09:32.495Z,3.93
2019-02-05T20:11:58.830Z,6.10
2019-02-05T20:14:25.301Z,8.17
2019-02-05T20:16:51.677Z,8.73
2019-02-05T20:19:18.393Z,25.03
2019-02-05T20:21:44.729Z,18.60
2019-02-05T20:24:11.088Z,14.10
2019-02-05T20:26:37.425Z,5.40
2019-02-05T20:29:03.867Z,8.57
2019-02-05T20:31:30.205Z,5.47
2019-02-05T20:33:56.442Z,8.10
2019-02-05T20:36:22.685Z,8.80
2019-02-05T20:38:49.107Z,11.00
2019-02-05T20:41:15.751Z,10.57
2019-02-05T20:43:42.496Z,7.80
2019-02-05T20:46:08.861Z,7.27
2019-02-05T20:48:35.237Z,4.43
2019-02-05T20:51:01.610Z,5.03
2019-02-05T20:53:28.017Z,7.13
2019-02-05T20:55:54.353Z,2.07
2019-02-05T20:58:20.719Z,3.27
2019-02-05T21:00:47.073Z,9.70
2019-02-05T21:03:13.417Z,114.77
2019-02-05T21:05:39.849Z,7.63
2019-02-05T21:08:06.307Z,40.13
2019-02-05T21:10:32.678Z,6.47
2019-02-05T21:12:59.034Z,7.73
2019-02-05T21:15:25.399Z,1.40
2019-02-05T21:17:51.725Z,3.43
2019-02-05T21:20:31.361Z,3.50
2019-02-05T21:22:50.596Z,2.77
2019-02-05T21:25:20.322Z,6.13
2019-02-05T21:27:46.660Z,6.60
2019-02-05T21:30:15.397Z,8.07
2019-02-05T21:32:41.725Z,4.87
2019-02-05T21:35:08.384Z,6.07
2019-02-05T21:37:34.719Z,4.37
2019-02-05T21:40:02.718Z,1.90
2019-02-05T21:42:29.251Z,5.80
2019-02-05T21:44:55.701Z,5.27
2019-02-05T21:47:22.021Z,4.40
2019-02-05T21:49:48.366Z,4.37
2019-02-05T21:52:14.826Z,7.10
2019-02-05T21:54:41.173Z,1.60
2019-02-05T21:57:08.501Z,1.98
2019-02-05T21:59:34.769Z,4.70
2019-02-05T22:02:01.251Z,2.93
2019-02-05T22:04:28.201Z,1.93
2019-02-05T22:06:54.815Z,3.30
2019-02-05T22:09:21.156Z,3.50
2019-02-05T22:11:47.443Z,6.37
2019-02-05T22:14:13.944Z,9.17
2019-02-05T22:16:40.269Z,7.97
2019-02-05T22:19:08.109Z,13.93
2019-02-05T22:21:34.452Z,10.80
2019-02-05T22:24:00.801Z,13.77
2019-02-05T22:26:27.148Z,7.90
2019-02-05T22:28:53.804Z,4.43
2019-02-05T22:31:20.139Z,3.30
2019-02-05T22:33:46.483Z,4.27
2019-02-05T22:36:12.921Z,21.73
2019-02-05T22:38:39.255Z,14.30
2019-02-05T22:41:05.604Z,8.70
2019-02-05T22:43:32.033Z,2.93
2019-02-05T22:45:58.454Z,2.17
2019-02-05T22:48:25.074Z,1.50
2019-02-05T22:50:52.149Z,1.97
2019-02-05T22:53:18.493Z,2.45
2019-02-05T22:55:44.866Z,1.57
2019-02-05T22:58:11.279Z,3.77
2019-02-05T23:00:43.353Z,7.67
2019-02-05T23:03:10.132Z,5.50
2019-02-05T23:05:59.801Z,3.53
2019-02-05T23:08:26.154Z,3.63
2019-02-05T23:11:03.186Z,3.10
2019-02-05T23:13:24.450Z,6.17
2019-02-05T23:15:51.173Z,1.33
2019-02-05T23:18:17.610Z,4.43
2019-02-05T23:20:43.944Z,2.67
2019-02-05T23:23:10.294Z,1.27
2019-02-05T23:25:36.625Z,4.87
2019-02-05T23:28:03.102Z,5.60
2019-02-05T23:30:29.415Z,4.20
2019-02-05T23:32:55.729Z,2.97
2019-02-05T23:35:22.065Z,6.60
2019-02-05T23:37:48.395Z,5.47
2019-02-05T23:40:14.735Z,4.43
2019-02-05T23:42:40.981Z,3.67
2019-02-05T23:45:10.309Z,4.03
2019-02-05T23:47:36.564Z,1.80
2019-02-05T23:50:06.273Z,1.23
2019-02-05T23:52:32.630Z,1.07
2019-02-05T23:54:59.369Z,1.47
2019-02-05T23:57:25.802Z,0.70
2019-02-05T23:59:52.120Z,2.00
